Trinidad, CO

10:55 PM MDT on September 23, 2014 (GMT -0600)
Stokes | Change Station
CLOSE
Current Station
Airport
Location: Trinidad,
Elevation: 5761 ft
Nearby Weather Stations

Elev 5761 ft 37.26 °N, 104.33 °W | Updated 1 hour ago

Clear
Clear
64 °F
Feels Like 64 °F
N
12
Wind Variable Wind from WSW

Today
High -- | Low -- °F
--% Chance of Precip.
Yesterday
High -- | Low -- °F
Precip. -- in
6:46 AM 6:52 PM
Waning Crescent, 0% visible
Pressure 29.95 in
Visibility 10.0 miles
Clouds Clear
Dew Point 45 °F
Humidity 50%
Rainfall 0.00 in
Snow Depth 1 in , 0 in , 0 in
UV 0 out of 12
Pollen 5.70 out of 12
Air Quality Not available.
Flu Activity Not available.
METAR KTAD 240354Z AUTO 25010KT 10SM CLR 18/07 A3018 RMK AO2 SLP142 T01780072

More Conditions Fewer Conditions

Pressure 29.95 in
Visibility 10.0 miles
Clouds Clear
Dew Point 45 °F
Humidity 50%
Rainfall 0.00 in
Snow Depth 1 in , 0 in , 0 in
UV 0 out of 12
Pollen 5.70 out of 12
Air Quality Not available.
Flu Activity Not available.
METAR KTAD 240354Z AUTO 25010KT 10SM CLR 18/07 A3018 RMK AO2 SLP142 T01780072

More Conditions Fewer Conditions

10-Day Weather Forecast

Almanac

Astronomy

Sep. 23, 2014 Rise Set
Actual Time 6:46 AM MDT 6:52 PM MDT
Civil Twilight 6:20 AM MDT 7:18 PM MDT
Nautical Twilight 5:49 AM MDT 7:48 PM MDT
Astronomical Twilight 5:18 AM MDT 8:19 PM MDT
Moon 6:12 AM MDT (9/23) 6:33 PM MDT (9/23)
Length of Visible Light 12h 58m
Length of Day
12h 06m
Tomorrow will be 2m 23s shorter.
Waning Crescent, 0% of the Moon is Illuminated
Sep 24
Waning Crescent
Sep 24
New
Oct 1
First Quarter
Oct 8
Full
Oct 15
Last Quarter

Yesterday's Extremes

State Highs State Lows

Community

WunderPhotos

Upload Photos

1,755,891 photos uploaded!

WunderBlogs® & News

Nearby

Snow Depth

Station Depth Elevation
El Diente Peak 1 in 10200 ft
Zirkel 0 in 9340 ft
Jones Pass 0 in 10400 ft
Sharkstooth 0 in 10720 ft
Columbine Pass 0 in 9400 ft

Earthquake Activity

City Distance Mag. Time & Date
No recent earthquake activity has been reported nearby.
Minimum magnitude displayed is 2.5.

Coastal Water Temperatures

Place Temperature
No Stations Reporting

Nearby Weather Stations